sensor_id;sensor_type;location;lat;lon;timestamp;P1;durP1;ratioP1;P2;durP2;ratioP2
14007;SDS011;61651;45.508;12.232;2023-12-22T00:00:38;47.20;;;42.40;;
14007;SDS011;61651;45.508;12.232;2023-12-22T00:03:40;46.63;;;42.00;;
14007;SDS011;61651;45.508;12.232;2023-12-22T00:06:42;46.13;;;41.40;;
14007;SDS011;61651;45.508;12.232;2023-12-22T00:09:44;47.37;;;42.57;;
14007;SDS011;61651;45.508;12.232;2023-12-22T00:12:46;44.03;;;39.70;;
14007;SDS011;61651;45.508;12.232;2023-12-22T00:15:50;46.07;;;41.57;;
14007;SDS011;61651;45.508;12.232;2023-12-22T00:18:52;45.07;;;40.67;;
14007;SDS011;61651;45.508;12.232;2023-12-22T00:21:55;47.13;;;42.60;;
14007;SDS011;61651;45.508;12.232;2023-12-22T00:24:58;45.27;;;40.67;;
14007;SDS011;61651;45.508;12.232;2023-12-22T00:28:00;44.50;;;40.20;;
14007;SDS011;61651;45.508;12.232;2023-12-22T00:31:03;48.13;;;43.33;;
14007;SDS011;61651;45.508;12.232;2023-12-22T00:34:05;48.13;;;43.43;;
14007;SDS011;61651;45.508;12.232;2023-12-22T00:37:08;46.07;;;41.37;;
14007;SDS011;61651;45.508;12.232;2023-12-22T00:40:10;46.27;;;41.63;;
14007;SDS011;61651;45.508;12.232;2023-12-22T00:43:12;46.20;;;41.50;;
14007;SDS011;61651;45.508;12.232;2023-12-22T00:46:15;48.10;;;43.40;;
14007;SDS011;61651;45.508;12.232;2023-12-22T00:49:17;46.33;;;41.93;;
14007;SDS011;61651;45.508;12.232;2023-12-22T00:52:21;47.67;;;42.77;;
14007;SDS011;61651;45.508;12.232;2023-12-22T00:55:23;47.60;;;42.50;;
14007;SDS011;61651;45.508;12.232;2023-12-22T00:58:26;45.30;;;40.63;;
14007;SDS011;61651;45.508;12.232;2023-12-22T01:01:29;44.17;;;39.90;;
14007;SDS011;61651;45.508;12.232;2023-12-22T01:04:31;46.30;;;41.43;;
14007;SDS011;61651;45.508;12.232;2023-12-22T01:07:33;45.63;;;40.90;;
14007;SDS011;61651;45.508;12.232;2023-12-22T01:10:35;46.07;;;41.20;;
14007;SDS011;61651;45.508;12.232;2023-12-22T01:13:37;44.23;;;39.87;;
14007;SDS011;61651;45.508;12.232;2023-12-22T01:16:41;44.50;;;40.00;;
14007;SDS011;61651;45.508;12.232;2023-12-22T01:19:43;45.30;;;40.47;;
14007;SDS011;61651;45.508;12.232;2023-12-22T01:22:45;47.33;;;42.50;;
14007;SDS011;61651;45.508;12.232;2023-12-22T01:25:47;45.03;;;40.27;;
14007;SDS011;61651;45.508;12.232;2023-12-22T01:28:49;45.80;;;41.07;;
14007;SDS011;61651;45.508;12.232;2023-12-22T01:31:52;47.00;;;42.20;;
14007;SDS011;61651;45.508;12.232;2023-12-22T01:34:55;44.40;;;39.73;;
14007;SDS011;61651;45.508;12.232;2023-12-22T01:37:57;46.00;;;41.20;;
14007;SDS011;61651;45.508;12.232;2023-12-22T01:40:59;43.53;;;39.07;;
14007;SDS011;61651;45.508;12.232;2023-12-22T01:44:01;44.40;;;39.73;;
14007;SDS011;61651;45.508;12.232;2023-12-22T01:47:05;42.70;;;38.40;;
14007;SDS011;61651;45.508;12.232;2023-12-22T01:50:07;43.53;;;38.83;;
14007;SDS011;61651;45.508;12.232;2023-12-22T01:53:11;41.43;;;37.30;;
14007;SDS011;61651;45.508;12.232;2023-12-22T01:56:13;40.70;;;36.43;;
14007;SDS011;61651;45.508;12.232;2023-12-22T01:59:16;41.40;;;36.97;;
14007;SDS011;61651;45.508;12.232;2023-12-22T02:02:19;42.07;;;37.57;;
14007;SDS011;61651;45.508;12.232;2023-12-22T02:05:21;43.60;;;39.10;;
14007;SDS011;61651;45.508;12.232;2023-12-22T02:08:23;41.90;;;37.60;;
14007;SDS011;61651;45.508;12.232;2023-12-22T02:11:27;41.40;;;37.23;;
14007;SDS011;61651;45.508;12.232;2023-12-22T02:14:29;42.27;;;35.87;;
14007;SDS011;61651;45.508;12.232;2023-12-22T02:17:36;38.00;;;33.90;;
14007;SDS011;61651;45.508;12.232;2023-12-22T02:20:45;37.97;;;34.17;;
14007;SDS011;61651;45.508;12.232;2023-12-22T02:23:49;39.53;;;35.43;;
14007;SDS011;61651;45.508;12.232;2023-12-22T02:26:51;39.33;;;35.30;;
14007;SDS011;61651;45.508;12.232;2023-12-22T02:29:57;40.03;;;35.90;;
14007;SDS011;61651;45.508;12.232;2023-12-22T02:33:04;37.47;;;33.73;;
14007;SDS011;61651;45.508;12.232;2023-12-22T02:36:08;37.63;;;33.63;;
14007;SDS011;61651;45.508;12.232;2023-12-22T02:39:14;36.00;;;32.10;;
14007;SDS011;61651;45.508;12.232;2023-12-22T02:42:18;35.40;;;31.63;;
14007;SDS011;61651;45.508;12.232;2023-12-22T02:45:23;35.53;;;31.83;;
14007;SDS011;61651;45.508;12.232;2023-12-22T02:48:25;33.93;;;30.23;;
14007;SDS011;61651;45.508;12.232;2023-12-22T02:51:27;33.53;;;30.07;;
14007;SDS011;61651;45.508;12.232;2023-12-22T02:54:31;32.30;;;28.83;;
14007;SDS011;61651;45.508;12.232;2023-12-22T02:57:33;31.83;;;27.87;;
14007;SDS011;61651;45.508;12.232;2023-12-22T03:00:35;30.50;;;27.23;;
14007;SDS011;61651;45.508;12.232;2023-12-22T03:03:37;30.50;;;27.30;;
14007;SDS011;61651;45.508;12.232;2023-12-22T03:06:39;31.17;;;27.23;;
14007;SDS011;61651;45.508;12.232;2023-12-22T03:09:43;31.27;;;27.87;;
14007;SDS011;61651;45.508;12.232;2023-12-22T03:12:45;31.40;;;28.00;;
14007;SDS011;61651;45.508;12.232;2023-12-22T03:15:47;31.00;;;27.77;;
14007;SDS011;61651;45.508;12.232;2023-12-22T03:18:49;29.80;;;26.33;;
14007;SDS011;61651;45.508;12.232;2023-12-22T03:21:51;28.50;;;25.60;;
14007;SDS011;61651;45.508;12.232;2023-12-22T03:24:54;30.80;;;25.67;;
14007;SDS011;61651;45.508;12.232;2023-12-22T03:27:56;26.50;;;23.67;;
14007;SDS011;61651;45.508;12.232;2023-12-22T03:30:58;58.40;;;42.17;;
14007;SDS011;61651;45.508;12.232;2023-12-22T03:34:00;59.13;;;44.77;;
14007;SDS011;61651;45.508;12.232;2023-12-22T03:37:03;98.33;;;57.53;;
14007;SDS011;61651;45.508;12.232;2023-12-22T03:40:07;64.80;;;44.37;;
14007;SDS011;61651;45.508;12.232;2023-12-22T03:43:10;69.37;;;45.40;;
14007;SDS011;61651;45.508;12.232;2023-12-22T03:46:12;69.07;;;45.93;;
14007;SDS011;61651;45.508;12.232;2023-12-22T03:49:14;47.03;;;35.43;;
14007;SDS011;61651;45.508;12.232;2023-12-22T03:52:17;36.57;;;29.83;;
14007;SDS011;61651;45.508;12.232;2023-12-22T03:55:20;31.60;;;26.60;;
14007;SDS011;61651;45.508;12.232;2023-12-22T03:58:22;31.10;;;27.13;;
14007;SDS011;61651;45.508;12.232;2023-12-22T04:01:26;29.53;;;26.33;;
14007;SDS011;61651;45.508;12.232;2023-12-22T04:04:28;30.80;;;26.87;;
14007;SDS011;61651;45.508;12.232;2023-12-22T04:07:30;29.53;;;26.37;;
14007;SDS011;61651;45.508;12.232;2023-12-22T04:10:33;28.63;;;24.67;;
14007;SDS011;61651;45.508;12.232;2023-12-22T04:13:35;26.17;;;23.43;;
14007;SDS011;61651;45.508;12.232;2023-12-22T04:16:37;27.77;;;24.13;;
14007;SDS011;61651;45.508;12.232;2023-12-22T04:19:39;25.60;;;23.10;;
14007;SDS011;61651;45.508;12.232;2023-12-22T04:22:41;27.40;;;24.10;;
14007;SDS011;61651;45.508;12.232;2023-12-22T04:25:44;26.23;;;23.37;;
14007;SDS011;61651;45.508;12.232;2023-12-22T04:28:46;25.40;;;22.70;;
14007;SDS011;61651;45.508;12.232;2023-12-22T04:31:48;27.10;;;23.27;;
14007;SDS011;61651;45.508;12.232;2023-12-22T04:34:50;24.03;;;21.43;;
14007;SDS011;61651;45.508;12.232;2023-12-22T04:37:52;25.47;;;21.93;;
14007;SDS011;61651;45.508;12.232;2023-12-22T04:40:56;25.57;;;22.23;;
14007;SDS011;61651;45.508;12.232;2023-12-22T04:43:58;24.57;;;22.07;;
14007;SDS011;61651;45.508;12.232;2023-12-22T04:47:03;23.97;;;21.43;;
14007;SDS011;61651;45.508;12.232;2023-12-22T04:50:05;23.80;;;21.30;;
14007;SDS011;61651;45.508;12.232;2023-12-22T04:53:07;23.33;;;20.83;;
14007;SDS011;61651;45.508;12.232;2023-12-22T04:56:10;23.90;;;21.40;;
14007;SDS011;61651;45.508;12.232;2023-12-22T04:59:12;23.73;;;21.23;;
14007;SDS011;61651;45.508;12.232;2023-12-22T05:02:14;23.13;;;20.87;;
14007;SDS011;61651;45.508;12.232;2023-12-22T05:05:16;23.83;;;21.33;;
14007;SDS011;61651;45.508;12.232;2023-12-22T05:08:18;25.03;;;22.33;;
14007;SDS011;61651;45.508;12.232;2023-12-22T05:11:22;24.33;;;21.83;;
14007;SDS011;61651;45.508;12.232;2023-12-22T05:14:24;26.77;;;23.53;;
14007;SDS011;61651;45.508;12.232;2023-12-22T05:17:26;25.33;;;22.63;;
14007;SDS011;61651;45.508;12.232;2023-12-22T05:20:28;24.60;;;22.07;;
14007;SDS011;61651;45.508;12.232;2023-12-22T06:08:54;23.40;;;20.97;;
14007;SDS011;61651;45.508;12.232;2023-12-22T06:11:56;25.40;;;22.70;;
14007;SDS011;61651;45.508;12.232;2023-12-22T06:14:59;24.83;;;22.00;;
14007;SDS011;61651;45.508;12.232;2023-12-22T06:18:01;26.63;;;23.20;;
14007;SDS011;61651;45.508;12.232;2023-12-22T06:21:03;26.47;;;23.60;;
14007;SDS011;61651;45.508;12.232;2023-12-22T06:24:07;25.43;;;21.63;;
14007;SDS011;61651;45.508;12.232;2023-12-22T06:27:09;25.30;;;22.60;;
14007;SDS011;61651;45.508;12.232;2023-12-22T06:30:12;27.93;;;23.60;;
14007;SDS011;61651;45.508;12.232;2023-12-22T06:33:14;37.83;;;33.73;;
14007;SDS011;61651;45.508;12.232;2023-12-22T06:36:20;29.90;;;26.03;;
14007;SDS011;61651;45.508;12.232;2023-12-22T06:39:23;33.03;;;29.37;;
14007;SDS011;61651;45.508;12.232;2023-12-22T06:42:25;29.60;;;26.60;;
14007;SDS011;61651;45.508;12.232;2023-12-22T06:45:27;30.80;;;26.17;;
14007;SDS011;61651;45.508;12.232;2023-12-22T06:48:29;27.87;;;24.87;;
14007;SDS011;61651;45.508;12.232;2023-12-22T06:51:36;29.93;;;26.70;;
14007;SDS011;61651;45.508;12.232;2023-12-22T06:54:39;28.03;;;25.00;;
14007;SDS011;61651;45.508;12.232;2023-12-22T06:57:41;26.90;;;24.07;;
14007;SDS011;61651;45.508;12.232;2023-12-22T07:00:44;27.93;;;23.43;;
14007;SDS011;61651;45.508;12.232;2023-12-22T07:03:46;30.37;;;27.00;;
14007;SDS011;61651;45.508;12.232;2023-12-22T07:06:48;27.93;;;24.83;;
14007;SDS011;61651;45.508;12.232;2023-12-22T07:09:52;28.67;;;25.73;;
14007;SDS011;61651;45.508;12.232;2023-12-22T07:12:54;29.87;;;25.20;;
14007;SDS011;61651;45.508;12.232;2023-12-22T07:15:56;29.77;;;26.67;;
14007;SDS011;61651;45.508;12.232;2023-12-22T07:18:58;28.40;;;24.80;;
14007;SDS011;61651;45.508;12.232;2023-12-22T07:22:00;30.57;;;26.27;;
14007;SDS011;61651;45.508;12.232;2023-12-22T07:25:06;30.77;;;27.47;;
14007;SDS011;61651;45.508;12.232;2023-12-22T07:28:08;34.37;;;29.90;;
14007;SDS011;61651;45.508;12.232;2023-12-22T07:31:10;32.83;;;28.77;;
14007;SDS011;61651;45.508;12.232;2023-12-22T07:34:12;31.67;;;28.23;;
14007;SDS011;61651;45.508;12.232;2023-12-22T07:37:15;30.37;;;27.00;;
14007;SDS011;61651;45.508;12.232;2023-12-22T07:40:18;33.17;;;29.03;;
14007;SDS011;61651;45.508;12.232;2023-12-22T07:43:20;33.87;;;30.20;;
14007;SDS011;61651;45.508;12.232;2023-12-22T07:46:23;32.87;;;29.30;;
14007;SDS011;61651;45.508;12.232;2023-12-22T07:49:25;32.63;;;29.13;;
14007;SDS011;61651;45.508;12.232;2023-12-22T07:52:27;34.57;;;30.73;;
14007;SDS011;61651;45.508;12.232;2023-12-22T07:55:30;33.00;;;29.60;;
14007;SDS011;61651;45.508;12.232;2023-12-22T07:58:32;33.80;;;29.43;;
14007;SDS011;61651;45.508;12.232;2023-12-22T08:01:34;39.60;;;35.30;;
14007;SDS011;61651;45.508;12.232;2023-12-22T08:04:36;34.20;;;30.63;;
14007;SDS011;61651;45.508;12.232;2023-12-22T08:07:38;31.97;;;28.73;;
14007;SDS011;61651;45.508;12.232;2023-12-22T08:10:42;32.90;;;29.13;;
14007;SDS011;61651;45.508;12.232;2023-12-22T08:13:44;30.97;;;27.50;;
14007;SDS011;61651;45.508;12.232;2023-12-22T08:16:46;34.40;;;30.70;;
14007;SDS011;61651;45.508;12.232;2023-12-22T08:19:48;33.00;;;29.73;;
14007;SDS011;61651;45.508;12.232;2023-12-22T08:22:50;36.53;;;32.60;;
14007;SDS011;61651;45.508;12.232;2023-12-22T08:25:54;34.17;;;30.47;;
14007;SDS011;61651;45.508;12.232;2023-12-22T08:28:57;33.37;;;29.87;;
14007;SDS011;61651;45.508;12.232;2023-12-22T08:31:59;34.10;;;30.53;;
14007;SDS011;61651;45.508;12.232;2023-12-22T08:35:01;37.53;;;30.60;;
14007;SDS011;61651;45.508;12.232;2023-12-22T08:38:04;36.13;;;32.00;;
14007;SDS011;61651;45.508;12.232;2023-12-22T08:41:08;34.83;;;31.10;;
14007;SDS011;61651;45.508;12.232;2023-12-22T08:44:12;37.07;;;32.27;;
14007;SDS011;61651;45.508;12.232;2023-12-22T08:47:14;35.07;;;30.77;;
14007;SDS011;61651;45.508;12.232;2023-12-22T08:50:16;34.00;;;30.37;;
14007;SDS011;61651;45.508;12.232;2023-12-22T08:53:18;32.20;;;28.90;;
14007;SDS011;61651;45.508;12.232;2023-12-22T08:56:22;32.73;;;29.13;;
14007;SDS011;61651;45.508;12.232;2023-12-22T08:59:24;34.37;;;31.03;;
14007;SDS011;61651;45.508;12.232;2023-12-22T09:02:26;34.90;;;31.20;;
14007;SDS011;61651;45.508;12.232;2023-12-22T09:05:28;33.20;;;29.27;;
14007;SDS011;61651;45.508;12.232;2023-12-22T09:08:30;32.37;;;28.93;;
14007;SDS011;61651;45.508;12.232;2023-12-22T09:11:33;32.03;;;28.67;;
14007;SDS011;61651;45.508;12.232;2023-12-22T09:14:35;33.00;;;29.13;;
14007;SDS011;61651;45.508;12.232;2023-12-22T09:17:37;32.30;;;28.73;;
14007;SDS011;61651;45.508;12.232;2023-12-22T09:20:41;32.17;;;28.80;;
14007;SDS011;61651;45.508;12.232;2023-12-22T09:23:43;31.80;;;28.47;;
14007;SDS011;61651;45.508;12.232;2023-12-22T09:26:47;36.72;;;33.03;;
14007;SDS011;61651;45.508;12.232;2023-12-22T09:29:51;33.87;;;30.20;;
14007;SDS011;61651;45.508;12.232;2023-12-22T09:32:53;34.60;;;30.57;;
14007;SDS011;61651;45.508;12.232;2023-12-22T09:35:55;33.30;;;29.90;;
14007;SDS011;61651;45.508;12.232;2023-12-22T09:38:57;32.57;;;29.23;;
14007;SDS011;61651;45.508;12.232;2023-12-22T09:42:00;32.83;;;27.90;;
14007;SDS011;61651;45.508;12.232;2023-12-22T09:45:02;28.93;;;26.03;;
14007;SDS011;61651;45.508;12.232;2023-12-22T09:48:07;33.00;;;29.73;;
14007;SDS011;61651;45.508;12.232;2023-12-22T09:51:11;32.90;;;29.40;;
14007;SDS011;61651;45.508;12.232;2023-12-22T09:54:14;34.23;;;30.63;;
14007;SDS011;61651;45.508;12.232;2023-12-22T09:57:18;33.47;;;30.07;;
14007;SDS011;61651;45.508;12.232;2023-12-22T10:00:21;32.90;;;29.10;;
14007;SDS011;61651;45.508;12.232;2023-12-22T10:03:25;31.53;;;28.13;;
14007;SDS011;61651;45.508;12.232;2023-12-22T10:06:27;33.47;;;30.17;;
14007;SDS011;61651;45.508;12.232;2023-12-22T10:09:29;32.27;;;28.97;;
14007;SDS011;61651;45.508;12.232;2023-12-22T10:12:34;31.27;;;28.17;;
14007;SDS011;61651;45.508;12.232;2023-12-22T10:15:38;30.87;;;27.67;;
14007;SDS011;61651;45.508;12.232;2023-12-22T10:18:41;36.42;;;33.03;;
14007;SDS011;61651;45.508;12.232;2023-12-22T10:21:44;32.57;;;29.17;;
14007;SDS011;61651;45.508;12.232;2023-12-22T10:24:46;31.10;;;27.90;;
14007;SDS011;61651;45.508;12.232;2023-12-22T10:27:49;28.33;;;25.50;;
14007;SDS011;61651;45.508;12.232;2023-12-22T10:30:54;28.80;;;25.90;;
14007;SDS011;61651;45.508;12.232;2023-12-22T10:33:59;28.20;;;25.20;;
14007;SDS011;61651;45.508;12.232;2023-12-22T10:37:01;30.50;;;27.47;;
14007;SDS011;61651;45.508;12.232;2023-12-22T10:40:04;31.93;;;28.63;;
14007;SDS011;61651;45.508;12.232;2023-12-22T10:43:08;32.90;;;28.93;;
14007;SDS011;61651;45.508;12.232;2023-12-22T10:46:10;31.83;;;28.53;;
14007;SDS011;61651;45.508;12.232;2023-12-22T10:49:13;31.27;;;28.17;;
14007;SDS011;61651;45.508;12.232;2023-12-22T10:52:15;32.57;;;29.23;;
14007;SDS011;61651;45.508;12.232;2023-12-22T10:55:18;30.57;;;27.47;;
14007;SDS011;61651;45.508;12.232;2023-12-22T10:58:22;28.87;;;25.97;;
14007;SDS011;61651;45.508;12.232;2023-12-22T11:01:24;30.90;;;27.60;;
14007;SDS011;61651;45.508;12.232;2023-12-22T11:04:31;30.33;;;27.20;;
14007;SDS011;61651;45.508;12.232;2023-12-22T11:07:38;34.10;;;30.90;;
14007;SDS011;61651;45.508;12.232;2023-12-22T11:10:44;30.77;;;27.47;;
14007;SDS011;61651;45.508;12.232;2023-12-22T11:13:57;30.23;;;26.93;;
14007;SDS011;61651;45.508;12.232;2023-12-22T11:17:00;30.50;;;27.43;;
14007;SDS011;61651;45.508;12.232;2023-12-22T11:20:04;30.43;;;27.43;;
14007;SDS011;61651;45.508;12.232;2023-12-22T11:23:07;31.33;;;28.13;;
14007;SDS011;61651;45.508;12.232;2023-12-22T11:26:10;30.43;;;27.17;;
14007;SDS011;61651;45.508;12.232;2023-12-22T11:29:14;32.23;;;29.03;;
14007;SDS011;61651;45.508;12.232;2023-12-22T11:32:19;32.33;;;28.97;;
14007;SDS011;61651;45.508;12.232;2023-12-22T11:35:21;30.90;;;27.23;;
14007;SDS011;61651;45.508;12.232;2023-12-22T11:38:25;29.43;;;26.60;;
14007;SDS011;61651;45.508;12.232;2023-12-22T11:41:27;29.20;;;26.07;;
14007;SDS011;61651;45.508;12.232;2023-12-22T11:44:35;30.13;;;27.03;;
14007;SDS011;61651;45.508;12.232;2023-12-22T11:47:37;29.27;;;26.20;;
14007;SDS011;61651;45.508;12.232;2023-12-22T11:50:39;28.77;;;25.70;;
14007;SDS011;61651;45.508;12.232;2023-12-22T11:53:41;28.50;;;25.53;;
14007;SDS011;61651;45.508;12.232;2023-12-22T11:56:43;30.23;;;25.17;;
14007;SDS011;61651;45.508;12.232;2023-12-22T11:59:47;27.57;;;24.80;;
14007;SDS011;61651;45.508;12.232;2023-12-22T12:02:53;27.40;;;24.47;;
14007;SDS011;61651;45.508;12.232;2023-12-22T12:06:09;27.43;;;24.73;;
14007;SDS011;61651;45.508;12.232;2023-12-22T12:09:12;26.90;;;24.27;;
14007;SDS011;61651;45.508;12.232;2023-12-22T12:12:17;26.13;;;23.53;;
14007;SDS011;61651;45.508;12.232;2023-12-22T12:15:20;27.40;;;24.63;;
14007;SDS011;61651;45.508;12.232;2023-12-22T12:18:26;25.87;;;23.10;;
14007;SDS011;61651;45.508;12.232;2023-12-22T12:21:29;30.10;;;25.03;;
14007;SDS011;61651;45.508;12.232;2023-12-22T12:24:32;27.97;;;24.90;;
14007;SDS011;61651;45.508;12.232;2023-12-22T12:27:35;26.73;;;23.87;;
14007;SDS011;61651;45.508;12.232;2023-12-22T12:30:39;25.43;;;22.73;;
14007;SDS011;61651;45.508;12.232;2023-12-22T12:33:42;25.43;;;22.20;;
14007;SDS011;61651;45.508;12.232;2023-12-22T12:36:46;26.50;;;21.67;;
14007;SDS011;61651;45.508;12.232;2023-12-22T12:39:49;26.27;;;23.57;;
14007;SDS011;61651;45.508;12.232;2023-12-22T12:42:55;26.63;;;23.20;;
14007;SDS011;61651;45.508;12.232;2023-12-22T12:46:04;23.50;;;21.13;;
14007;SDS011;61651;45.508;12.232;2023-12-22T12:49:06;24.87;;;21.80;;
14007;SDS011;61651;45.508;12.232;2023-12-22T12:52:11;23.70;;;21.40;;
14007;SDS011;61651;45.508;12.232;2023-12-22T12:55:14;25.27;;;22.70;;
14007;SDS011;61651;45.508;12.232;2023-12-22T12:58:18;23.67;;;21.23;;
14007;SDS011;61651;45.508;12.232;2023-12-22T13:01:22;26.30;;;22.63;;
14007;SDS011;61651;45.508;12.232;2023-12-22T13:04:24;25.88;;;23.23;;
14007;SDS011;61651;45.508;12.232;2023-12-22T13:07:38;24.70;;;22.20;;
14007;SDS011;61651;45.508;12.232;2023-12-22T13:10:40;25.60;;;22.83;;
14007;SDS011;61651;45.508;12.232;2023-12-22T13:13:43;25.95;;;23.20;;
14007;SDS011;61651;45.508;12.232;2023-12-22T13:16:46;27.90;;;24.92;;
14007;SDS011;61651;45.508;12.232;2023-12-22T13:19:48;26.70;;;23.90;;
14007;SDS011;61651;45.508;12.232;2023-12-22T13:22:50;28.60;;;25.65;;
14007;SDS011;61651;45.508;12.232;2023-12-22T13:25:52;30.55;;;26.35;;
14007;SDS011;61651;45.508;12.232;2023-12-22T13:28:57;28.83;;;25.83;;
14007;SDS011;61651;45.508;12.232;2023-12-22T13:32:01;28.05;;;25.00;;
14007;SDS011;61651;45.508;12.232;2023-12-22T13:35:03;27.50;;;24.85;;
14007;SDS011;61651;45.508;12.232;2023-12-22T13:38:06;29.02;;;26.00;;
14007;SDS011;61651;45.508;12.232;2023-12-22T13:41:08;28.38;;;25.40;;
14007;SDS011;61651;45.508;12.232;2023-12-22T13:44:11;29.35;;;26.20;;
14007;SDS011;61651;45.508;12.232;2023-12-22T13:47:15;30.17;;;25.92;;
14007;SDS011;61651;45.508;12.232;2023-12-22T13:50:17;28.80;;;25.90;;
14007;SDS011;61651;45.508;12.232;2023-12-22T13:53:23;29.23;;;26.17;;
14007;SDS011;61651;45.508;12.232;2023-12-22T13:56:25;29.80;;;27.00;;
14007;SDS011;61651;45.508;12.232;2023-12-22T13:59:35;30.65;;;27.48;;
14007;SDS011;61651;45.508;12.232;2023-12-22T14:02:38;32.15;;;26.42;;
14007;SDS011;61651;45.508;12.232;2023-12-22T14:05:41;31.90;;;27.67;;
14007;SDS011;61651;45.508;12.232;2023-12-22T14:08:43;31.55;;;28.10;;
14007;SDS011;61651;45.508;12.232;2023-12-22T14:11:45;32.08;;;28.38;;
14007;SDS011;61651;45.508;12.232;2023-12-22T14:14:47;33.97;;;29.05;;
14007;SDS011;61651;45.508;12.232;2023-12-22T14:17:50;31.95;;;28.58;;
14007;SDS011;61651;45.508;12.232;2023-12-22T14:20:52;34.15;;;30.35;;
14007;SDS011;61651;45.508;12.232;2023-12-22T14:23:55;34.70;;;31.00;;
14007;SDS011;61651;45.508;12.232;2023-12-22T14:26:57;34.15;;;30.33;;
14007;SDS011;61651;45.508;12.232;2023-12-22T14:29:59;32.65;;;29.25;;
14007;SDS011;61651;45.508;12.232;2023-12-22T14:33:03;34.13;;;30.60;;
14007;SDS011;61651;45.508;12.232;2023-12-22T14:36:05;35.50;;;31.90;;
14007;SDS011;61651;45.508;12.232;2023-12-22T14:39:07;44.75;;;36.25;;
14007;SDS011;61651;45.508;12.232;2023-12-22T14:42:11;34.97;;;31.33;;
14007;SDS011;61651;45.508;12.232;2023-12-22T14:45:13;34.92;;;31.40;;
14007;SDS011;61651;45.508;12.232;2023-12-22T14:48:16;37.80;;;31.75;;
14007;SDS011;61651;45.508;12.232;2023-12-22T14:51:18;33.05;;;29.52;;
14007;SDS011;61651;45.508;12.232;2023-12-22T14:54:20;33.15;;;29.67;;
14007;SDS011;61651;45.508;12.232;2023-12-22T14:57:23;33.42;;;30.17;;
14007;SDS011;61651;45.508;12.232;2023-12-22T15:00:25;35.05;;;31.13;;
14007;SDS011;61651;45.508;12.232;2023-12-22T15:03:28;42.25;;;31.65;;
14007;SDS011;61651;45.508;12.232;2023-12-22T15:06:30;36.50;;;32.92;;
14007;SDS011;61651;45.508;12.232;2023-12-22T15:09:32;34.10;;;30.45;;
14007;SDS011;61651;45.508;12.232;2023-12-22T15:12:34;34.30;;;30.60;;
14007;SDS011;61651;45.508;12.232;2023-12-22T15:15:37;35.60;;;31.85;;
14007;SDS011;61651;45.508;12.232;2023-12-22T15:18:41;33.45;;;29.98;;
14007;SDS011;61651;45.508;12.232;2023-12-22T15:21:43;34.20;;;29.95;;
14007;SDS011;61651;45.508;12.232;2023-12-22T15:24:45;32.63;;;29.13;;
14007;SDS011;61651;45.508;12.232;2023-12-22T15:27:47;36.00;;;32.20;;
14007;SDS011;61651;45.508;12.232;2023-12-22T15:30:49;36.90;;;33.10;;
14007;SDS011;61651;45.508;12.232;2023-12-22T15:33:53;34.03;;;29.63;;
14007;SDS011;61651;45.508;12.232;2023-12-22T15:36:55;34.55;;;30.58;;
14007;SDS011;61651;45.508;12.232;2023-12-22T15:39:57;34.90;;;31.20;;
14007;SDS011;61651;45.508;12.232;2023-12-22T15:42:59;36.85;;;32.45;;
14007;SDS011;61651;45.508;12.232;2023-12-22T15:46:03;34.40;;;30.88;;
14007;SDS011;61651;45.508;12.232;2023-12-22T15:49:07;36.20;;;32.13;;
14007;SDS011;61651;45.508;12.232;2023-12-22T15:52:09;36.83;;;32.87;;
14007;SDS011;61651;45.508;12.232;2023-12-22T15:55:11;38.37;;;32.30;;
14007;SDS011;61651;45.508;12.232;2023-12-22T15:58:13;34.20;;;30.60;;
14007;SDS011;61651;45.508;12.232;2023-12-22T16:01:15;36.77;;;32.67;;
14007;SDS011;61651;45.508;12.232;2023-12-22T16:04:19;36.27;;;32.33;;
14007;SDS011;61651;45.508;12.232;2023-12-22T16:07:21;37.20;;;33.13;;
14007;SDS011;61651;45.508;12.232;2023-12-22T16:10:23;36.67;;;32.03;;
14007;SDS011;61651;45.508;12.232;2023-12-22T16:13:26;36.23;;;32.57;;
14007;SDS011;61651;45.508;12.232;2023-12-22T16:16:29;34.43;;;30.83;;
14007;SDS011;61651;45.508;12.232;2023-12-22T16:19:33;34.93;;;31.27;;
14007;SDS011;61651;45.508;12.232;2023-12-22T16:22:39;35.53;;;31.90;;
14007;SDS011;61651;45.508;12.232;2023-12-22T16:25:41;38.57;;;34.37;;
14007;SDS011;61651;45.508;12.232;2023-12-22T16:28:43;44.57;;;38.83;;
14007;SDS011;61651;45.508;12.232;2023-12-22T16:31:46;42.33;;;36.27;;
14007;SDS011;61651;45.508;12.232;2023-12-22T16:34:49;39.53;;;35.33;;
14007;SDS011;61651;45.508;12.232;2023-12-22T16:37:51;39.27;;;34.47;;
14007;SDS011;61651;45.508;12.232;2023-12-22T16:40:53;40.13;;;35.90;;
14007;SDS011;61651;45.508;12.232;2023-12-22T16:43:55;44.00;;;36.57;;
14007;SDS011;61651;45.508;12.232;2023-12-22T16:46:57;40.77;;;36.37;;
14007;SDS011;61651;45.508;12.232;2023-12-22T16:50:00;41.83;;;36.00;;
14007;SDS011;61651;45.508;12.232;2023-12-22T16:53:02;44.20;;;39.43;;
14007;SDS011;61651;45.508;12.232;2023-12-22T16:56:05;42.37;;;38.00;;
14007;SDS011;61651;45.508;12.232;2023-12-22T16:59:07;44.13;;;39.43;;
14007;SDS011;61651;45.508;12.232;2023-12-22T17:02:09;42.33;;;37.93;;
14007;SDS011;61651;45.508;12.232;2023-12-22T17:05:12;39.70;;;35.73;;
14007;SDS011;61651;45.508;12.232;2023-12-22T17:08:14;44.73;;;39.97;;
14007;SDS011;61651;45.508;12.232;2023-12-22T17:11:18;52.10;;;43.90;;
14007;SDS011;61651;45.508;12.232;2023-12-22T17:14:20;54.13;;;44.10;;
14007;SDS011;61651;45.508;12.232;2023-12-22T17:17:22;48.97;;;41.47;;
14007;SDS011;61651;45.508;12.232;2023-12-22T17:20:25;45.90;;;39.30;;
14007;SDS011;61651;45.508;12.232;2023-12-22T17:23:27;43.37;;;38.77;;
14007;SDS011;61651;45.508;12.232;2023-12-22T17:26:29;43.10;;;38.03;;
14007;SDS011;61651;45.508;12.232;2023-12-22T17:29:31;44.70;;;39.87;;
14007;SDS011;61651;45.508;12.232;2023-12-22T17:32:33;44.53;;;39.83;;
14007;SDS011;61651;45.508;12.232;2023-12-22T17:35:37;44.23;;;39.57;;
14007;SDS011;61651;45.508;12.232;2023-12-22T17:38:39;44.13;;;39.53;;
14007;SDS011;61651;45.508;12.232;2023-12-22T17:41:41;45.60;;;40.73;;
14007;SDS011;61651;45.508;12.232;2023-12-22T17:44:43;44.77;;;40.13;;
14007;SDS011;61651;45.508;12.232;2023-12-22T17:47:45;43.50;;;38.90;;
14007;SDS011;61651;45.508;12.232;2023-12-22T17:50:49;44.13;;;39.43;;
14007;SDS011;61651;45.508;12.232;2023-12-22T17:53:51;42.33;;;38.03;;
14007;SDS011;61651;45.508;12.232;2023-12-22T17:56:52;45.07;;;40.53;;
14007;SDS011;61651;45.508;12.232;2023-12-22T17:59:54;43.87;;;39.07;;
14007;SDS011;61651;45.508;12.232;2023-12-22T18:02:56;41.97;;;37.40;;
14007;SDS011;61651;45.508;12.232;2023-12-22T18:06:00;44.63;;;40.03;;
14007;SDS011;61651;45.508;12.232;2023-12-22T18:09:03;41.20;;;36.87;;
14007;SDS011;61651;45.508;12.232;2023-12-22T18:12:07;43.63;;;38.93;;
14007;SDS011;61651;45.508;12.232;2023-12-22T18:15:09;43.43;;;38.57;;
14007;SDS011;61651;45.508;12.232;2023-12-22T18:18:11;42.93;;;38.53;;